createdAt,value
2023-03-01T00:00:38.924Z,1019.68
2023-03-01T00:01:39.031Z,1019.66
2023-03-01T00:02:39.185Z,1019.65
2023-03-01T00:03:39.183Z,1019.61
2023-03-01T00:04:39.158Z,1019.67
2023-03-01T00:05:38.846Z,1019.66
2023-03-01T00:06:39.168Z,1019.68
2023-03-01T00:07:39.274Z,1019.71
2023-03-01T00:08:38.797Z,1019.66
2023-03-01T00:09:39.396Z,1019.73
2023-03-01T00:10:38.783Z,1019.69
2023-03-01T00:11:39.514Z,1019.79
2023-03-01T00:12:39.205Z,1019.75
2023-03-01T00:13:39.312Z,1019.73
2023-03-01T00:14:38.809Z,1019.71
2023-03-01T00:15:39.585Z,1019.71
2023-03-01T00:16:39.772Z,1019.71
2023-03-01T00:17:39.654Z,1019.68
2023-03-01T00:18:39.043Z,1019.63
2023-03-01T00:19:38.742Z,1019.64
2023-03-01T00:20:38.741Z,1019.61
2023-03-01T00:21:38.863Z,1019.65
2023-03-01T00:22:38.684Z,1019.60
2023-03-01T00:23:38.695Z,1019.63
2023-03-01T00:24:39.093Z,1019.66
2023-03-01T00:25:39.100Z,1019.63
2023-03-01T00:26:39.309Z,1019.60
2023-03-01T00:27:38.700Z,1019.61
2023-03-01T00:28:38.714Z,1019.60
2023-03-01T00:29:38.747Z,1019.56
2023-03-01T00:30:38.753Z,1019.62
2023-03-01T00:31:38.745Z,1019.65
2023-03-01T00:32:38.738Z,1019.55
2023-03-01T00:33:38.967Z,1019.55
2023-03-01T00:34:38.961Z,1019.58
2023-03-01T00:35:38.792Z,1019.52
2023-03-01T00:36:38.989Z,1019.48
2023-03-01T00:37:38.581Z,1019.47
2023-03-01T00:38:38.677Z,1019.43
2023-03-01T00:39:38.697Z,1019.43
2023-03-01T00:40:38.694Z,1019.44
2023-03-01T00:41:38.704Z,1019.50
2023-03-01T00:42:38.705Z,1019.48
2023-03-01T00:43:38.705Z,1019.49
2023-03-01T00:44:38.747Z,1019.50
2023-03-01T00:45:38.728Z,1019.46
2023-03-01T00:46:38.838Z,1019.42
2023-03-01T00:47:38.740Z,1019.44
2023-03-01T00:50:04.476Z,1019.42
2023-03-01T00:51:04.475Z,1019.42
2023-03-01T00:52:04.477Z,1019.38
2023-03-01T00:53:04.472Z,1019.37
2023-03-01T00:54:04.459Z,1019.31
2023-03-01T00:55:04.450Z,1019.34
2023-03-01T00:56:04.441Z,1019.38
2023-03-01T00:57:04.461Z,1019.41
2023-03-01T00:58:04.429Z,1019.37
2023-03-01T00:59:04.421Z,1019.33
2023-03-01T01:00:04.666Z,1019.40
2023-03-01T01:01:04.734Z,1019.37
2023-03-01T01:02:04.481Z,1019.38
2023-03-01T01:03:05.289Z,1019.37
2023-03-01T01:04:05.457Z,1019.42
2023-03-01T01:05:05.308Z,1019.36
2023-03-01T01:06:04.398Z,1019.44
2023-03-01T01:07:04.513Z,1019.45
2023-03-01T01:08:04.396Z,1019.40
2023-03-01T01:09:04.526Z,1019.39
2023-03-01T01:10:04.541Z,1019.43
2023-03-01T01:11:04.355Z,1019.41
2023-03-01T01:12:04.758Z,1019.40
2023-03-01T01:13:04.764Z,1019.42
2023-03-01T01:14:04.347Z,1019.41
2023-03-01T01:15:04.352Z,1019.52
2023-03-01T01:16:04.389Z,1019.44
2023-03-01T01:17:04.344Z,1019.46
2023-03-01T01:18:04.385Z,1019.37
2023-03-01T01:19:04.400Z,1019.43
2023-03-01T01:20:04.590Z,1019.45
2023-03-01T01:21:04.390Z,1019.44
2023-03-01T01:22:04.614Z,1019.41
2023-03-01T01:23:04.610Z,1019.40
2023-03-01T01:24:04.662Z,1019.41
2023-03-01T01:25:04.308Z,1019.36
2023-03-01T01:26:04.289Z,1019.42
2023-03-01T01:27:04.290Z,1019.35
2023-03-01T01:28:04.653Z,1019.35
2023-03-01T01:29:04.259Z,1019.42
2023-03-01T01:30:04.253Z,1019.40
2023-03-01T01:31:04.316Z,1019.37
2023-03-01T01:32:04.293Z,1019.41
2023-03-01T01:33:04.276Z,1019.34
2023-03-01T01:34:04.286Z,1019.35
2023-03-01T01:35:04.316Z,1019.37
2023-03-01T01:36:04.325Z,1019.35
2023-03-01T01:37:04.305Z,1019.27
2023-03-01T01:38:04.341Z,1019.23
2023-03-01T01:39:04.544Z,1019.21
2023-03-01T01:40:04.536Z,1019.18
2023-03-01T01:41:04.341Z,1019.21
2023-03-01T01:42:04.545Z,1019.19
2023-03-01T01:43:04.553Z,1019.18
2023-03-01T01:44:04.552Z,1019.17
2023-03-01T01:45:04.361Z,1019.18
2023-03-01T01:46:04.627Z,1019.11
2023-03-01T01:47:04.589Z,1019.15
2023-03-01T01:48:04.582Z,1019.15
2023-03-01T01:49:04.133Z,1019.13
2023-03-01T01:50:04.600Z,1019.15
2023-03-01T01:51:04.608Z,1019.09
2023-03-01T01:52:04.627Z,1019.14
2023-03-01T01:53:04.609Z,1019.13
2023-03-01T01:54:04.206Z,1019.14
2023-03-01T01:55:04.088Z,1019.11
2023-03-01T01:56:04.240Z,1019.11
2023-03-01T01:57:04.252Z,1019.11
2023-03-01T01:58:04.268Z,1019.09
2023-03-01T01:59:04.064Z,1019.11
2023-03-01T02:00:04.077Z,1019.09
2023-03-01T02:01:04.089Z,1019.05
2023-03-01T02:02:04.085Z,1019.03
2023-03-01T02:03:04.175Z,1019.03
2023-03-01T02:04:04.101Z,1018.99
2023-03-01T02:05:04.354Z,1019.02
2023-03-01T02:06:04.220Z,1019.04
2023-03-01T02:07:04.315Z,1019.02
2023-03-01T02:08:04.363Z,1018.98
2023-03-01T02:09:04.348Z,1018.95
2023-03-01T02:10:04.531Z,1018.92
2023-03-01T02:11:04.450Z,1018.97
2023-03-01T02:12:03.992Z,1018.96
2023-03-01T02:13:03.981Z,1018.93
2023-03-01T02:14:04.000Z,1018.97
2023-03-01T02:15:03.985Z,1019.05
2023-03-01T02:16:04.823Z,1018.96
2023-03-01T02:17:03.962Z,1019.02
2023-03-01T02:18:03.979Z,1019.01
2023-03-01T02:19:03.988Z,1019.00
2023-03-01T02:20:03.993Z,1019.00
2023-03-01T02:21:03.992Z,1018.96
2023-03-01T02:22:04.049Z,1018.98
2023-03-01T02:23:04.011Z,1019.06
2023-03-01T02:24:04.007Z,1019.08
2023-03-01T02:25:04.012Z,1019.04
2023-03-01T02:26:04.042Z,1019.06
2023-03-01T02:27:04.040Z,1019.03
2023-03-01T02:28:03.908Z,1018.97
2023-03-01T02:29:04.040Z,1019.00
2023-03-01T02:30:03.904Z,1018.98
2023-03-01T02:31:03.930Z,1018.96
2023-03-01T02:32:04.102Z,1019.01
2023-03-01T02:33:04.255Z,1018.97
2023-03-01T02:34:04.094Z,1018.97
2023-03-01T02:35:03.876Z,1019.00
2023-03-01T02:36:04.137Z,1019.04
2023-03-01T02:37:04.324Z,1019.04
2023-03-01T02:38:04.335Z,1018.98
2023-03-01T02:39:03.846Z,1018.99
2023-03-01T02:40:03.946Z,1018.98
2023-03-01T02:41:04.136Z,1018.94
2023-03-01T02:42:04.141Z,1019.00
2023-03-01T02:43:03.950Z,1018.96
2023-03-01T02:44:04.172Z,1019.00
2023-03-01T02:45:04.165Z,1018.95
2023-03-01T02:46:03.782Z,1018.93
2023-03-01T02:47:03.905Z,1018.81
2023-03-01T02:48:03.894Z,1018.88
2023-03-01T02:49:03.789Z,1018.87
2023-03-01T02:50:03.779Z,1018.84
2023-03-01T02:51:03.789Z,1018.81
2023-03-01T02:52:03.759Z,1018.76
2023-03-01T02:53:04.413Z,1018.70
2023-03-01T02:54:03.810Z,1018.74
2023-03-01T02:55:03.723Z,1018.77
2023-03-01T02:56:03.848Z,1018.77
2023-03-01T02:57:03.751Z,1018.85
2023-03-01T02:58:03.872Z,1018.75
2023-03-01T02:59:03.866Z,1018.79
2023-03-01T03:00:03.696Z,1018.81
2023-03-01T03:01:03.731Z,1018.83
2023-03-01T03:02:03.867Z,1018.80
2023-03-01T03:03:03.869Z,1018.80
2023-03-01T03:04:03.733Z,1018.78
2023-03-01T03:05:03.673Z,1018.78
2023-03-01T03:06:03.705Z,1018.78
2023-03-01T03:07:03.683Z,1018.80
2023-03-01T03:08:03.741Z,1018.81
2023-03-01T03:09:03.707Z,1018.81
2023-03-01T03:10:03.952Z,1018.76
2023-03-01T03:11:03.928Z,1018.74
2023-03-01T03:12:03.951Z,1018.72
2023-03-01T03:13:03.944Z,1018.65
2023-03-01T03:14:03.680Z,1018.73
2023-03-01T03:15:03.651Z,1018.67
2023-03-01T03:16:03.759Z,1018.67
2023-03-01T03:17:03.987Z,1018.60
2023-03-01T03:18:03.971Z,1018.61
2023-03-01T03:19:03.969Z,1018.63
2023-03-01T03:20:03.977Z,1018.60
2023-03-01T03:21:03.568Z,1018.56
2023-03-01T03:22:03.790Z,1018.51
2023-03-01T03:23:03.598Z,1018.55
2023-03-01T03:24:04.216Z,1018.52
2023-03-01T03:25:04.216Z,1018.48
2023-03-01T03:26:04.225Z,1018.45
2023-03-01T03:27:03.536Z,1018.42
2023-03-01T03:28:03.574Z,1018.40
2023-03-01T03:29:03.586Z,1018.40
2023-03-01T03:30:03.779Z,1018.42
2023-03-01T03:31:05.018Z,1018.40
2023-03-01T03:32:04.311Z,1018.45
2023-03-01T03:33:04.292Z,1018.45
2023-03-01T03:34:03.661Z,1018.42
2023-03-01T03:35:04.273Z,1018.42
2023-03-01T03:36:04.351Z,1018.43
2023-03-01T03:37:04.087Z,1018.42
2023-03-01T03:38:04.101Z,1018.45
2023-03-01T03:39:04.321Z,1018.43
2023-03-01T03:40:04.296Z,1018.42
2023-03-01T03:41:04.108Z,1018.40
2023-03-01T03:42:04.326Z,1018.40
2023-03-01T03:43:04.264Z,1018.34
2023-03-01T03:44:03.518Z,1018.36
2023-03-01T03:45:03.548Z,1018.36
2023-03-01T03:46:03.589Z,1018.40
2023-03-01T03:47:03.536Z,1018.37
2023-03-01T03:48:03.546Z,1018.31
2023-03-01T03:49:03.572Z,1018.38
2023-03-01T03:50:03.559Z,1018.34
2023-03-01T03:51:03.415Z,1018.36
2023-03-01T03:52:03.415Z,1018.29
2023-03-01T03:53:03.433Z,1018.30
2023-03-01T03:54:03.593Z,1018.31
2023-03-01T03:55:03.604Z,1018.23
2023-03-01T03:56:05.185Z,1018.29
2023-03-01T03:57:03.604Z,1018.22
2023-03-01T03:58:03.823Z,1018.25
2023-03-01T03:59:03.824Z,1018.33
2023-03-01T04:00:03.637Z,1018.34
2023-03-01T04:01:03.833Z,1018.35
2023-03-01T04:02:03.441Z,1018.42
2023-03-01T04:03:03.840Z,1018.46
2023-03-01T04:04:03.652Z,1018.39
2023-03-01T04:05:03.856Z,1018.38
2023-03-01T04:06:04.082Z,1018.40
2023-03-01T04:07:03.473Z,1018.44
2023-03-01T04:08:04.105Z,1018.40
2023-03-01T04:09:03.540Z,1018.44
2023-03-01T04:10:03.309Z,1018.47
2023-03-01T04:11:03.289Z,1018.52
2023-03-01T04:12:04.195Z,1018.45
2023-03-01T04:13:03.319Z,1018.43
2023-03-01T04:14:03.317Z,1018.43
2023-03-01T04:15:03.348Z,1018.42
2023-03-01T04:16:03.342Z,1018.45
2023-03-01T04:17:03.326Z,1018.50
2023-03-01T04:18:03.338Z,1018.58
2023-03-01T04:19:03.235Z,1018.59
2023-03-01T04:20:03.261Z,1018.47
2023-03-01T04:21:03.353Z,1018.56
2023-03-01T04:22:03.255Z,1018.46
2023-03-01T04:23:03.363Z,1018.49
2023-03-01T04:24:03.394Z,1018.46
2023-03-01T04:25:03.407Z,1018.45
2023-03-01T04:26:03.202Z,1018.50
2023-03-01T04:27:03.625Z,1018.50
2023-03-01T04:28:03.222Z,1018.47
2023-03-01T04:29:03.193Z,1018.49
2023-03-01T04:30:03.204Z,1018.41
2023-03-01T04:31:03.423Z,1018.43
2023-03-01T04:32:03.353Z,1018.43
2023-03-01T04:33:03.421Z,1018.35
2023-03-01T04:34:03.465Z,1018.42
2023-03-01T04:35:03.440Z,1018.40
2023-03-01T04:36:03.514Z,1018.45
2023-03-01T04:37:03.490Z,1018.45
2023-03-01T04:38:03.504Z,1018.39
2023-03-01T04:39:03.508Z,1018.44
2023-03-01T04:40:03.507Z,1018.35
2023-03-01T04:41:03.528Z,1018.44
2023-03-01T04:42:03.516Z,1018.44
2023-03-01T04:43:03.288Z,1018.46
2023-03-01T04:44:03.114Z,1018.46
2023-03-01T04:45:03.106Z,1018.48
2023-03-01T04:46:03.220Z,1018.53
2023-03-01T04:47:03.136Z,1018.47
2023-03-01T04:48:03.342Z,1018.51
2023-03-01T04:49:03.335Z,1018.43
2023-03-01T04:50:03.344Z,1018.48
2023-03-01T04:51:03.132Z,1018.49
2023-03-01T04:52:03.347Z,1018.44
2023-03-01T04:53:03.400Z,1018.52
2023-03-01T04:54:03.575Z,1018.47
2023-03-01T04:55:03.123Z,1018.49
2023-03-01T04:56:03.581Z,1018.46
2023-03-01T04:57:03.028Z,1018.48
2023-03-01T04:58:03.036Z,1018.51
2023-03-01T04:59:03.081Z,1018.50
2023-03-01T05:00:03.021Z,1018.49
2023-03-01T05:01:03.021Z,1018.42
2023-03-01T05:02:03.047Z,1018.46
2023-03-01T05:03:03.104Z,1018.42
2023-03-01T05:04:03.284Z,1018.42
2023-03-01T05:05:03.229Z,1018.40
2023-03-01T05:06:03.233Z,1018.48
2023-03-01T05:07:03.278Z,1018.43
2023-03-01T05:08:03.462Z,1018.46
2023-03-01T05:09:03.359Z,1018.43
2023-03-01T05:10:03.261Z,1018.44
2023-03-01T05:11:03.469Z,1018.41
2023-03-01T05:12:02.938Z,1018.37
2023-03-01T05:13:03.685Z,1018.45
2023-03-01T05:14:03.696Z,1018.40
2023-03-01T05:15:02.916Z,1018.32
2023-03-01T05:16:03.745Z,1018.42
2023-03-01T05:17:03.512Z,1018.36
2023-03-01T05:18:03.306Z,1018.39
2023-03-01T05:19:03.112Z,1018.42
2023-03-01T05:20:03.314Z,1018.39
2023-03-01T05:21:03.128Z,1018.35
2023-03-01T05:22:03.274Z,1018.38
2023-03-01T05:23:03.550Z,1018.36
2023-03-01T05:24:02.945Z,1018.34
2023-03-01T05:25:03.684Z,1018.33
2023-03-01T05:26:02.951Z,1018.40
2023-03-01T05:27:03.748Z,1018.35
2023-03-01T05:28:03.380Z,1018.32
2023-03-01T05:29:03.021Z,1018.36
2023-03-01T05:30:02.826Z,1018.31
2023-03-01T05:31:03.045Z,1018.33
2023-03-01T05:32:03.022Z,1018.32
2023-03-01T05:33:03.059Z,1018.33
2023-03-01T05:34:02.832Z,1018.36
2023-03-01T05:35:03.277Z,1018.31
2023-03-01T05:36:02.901Z,1018.39
2023-03-01T05:37:02.834Z,1018.35
2023-03-01T05:38:02.845Z,1018.29
2023-03-01T05:39:02.845Z,1018.36
2023-03-01T05:40:02.847Z,1018.35
2023-03-01T05:41:02.793Z,1018.23
2023-03-01T05:42:03.080Z,1018.29
2023-03-01T05:43:03.074Z,1018.30
2023-03-01T05:44:02.885Z,1018.31
2023-03-01T05:45:03.095Z,1018.24
2023-03-01T05:46:02.805Z,1018.30
2023-03-01T05:47:03.311Z,1018.32
2023-03-01T05:48:02.721Z,1018.22
2023-03-01T05:49:03.318Z,1018.24
2023-03-01T05:50:03.324Z,1018.20
2023-03-01T05:51:02.681Z,1018.17
2023-03-01T05:52:02.775Z,1018.21
2023-03-01T05:53:02.727Z,1018.23
2023-03-01T05:54:02.705Z,1018.27
2023-03-01T05:55:02.793Z,1018.28
2023-03-01T05:56:02.803Z,1018.27
2023-03-01T05:57:02.754Z,1018.28
2023-03-01T05:58:02.667Z,1018.32
2023-03-01T05:59:02.761Z,1018.35
2023-03-01T06:00:02.642Z,1018.28
2023-03-01T06:01:02.639Z,1018.27
2023-03-01T06:02:02.788Z,1018.34
2023-03-01T06:03:02.629Z,1018.33
2023-03-01T06:04:02.796Z,1018.31
2023-03-01T06:05:02.882Z,1018.38
2023-03-01T06:06:02.720Z,1018.38
2023-03-01T06:07:02.809Z,1018.33
2023-03-01T06:08:02.831Z,1018.34
2023-03-01T06:09:02.827Z,1018.32
2023-03-01T06:10:02.834Z,1018.37
2023-03-01T06:11:02.843Z,1018.32
2023-03-01T06:12:02.852Z,1018.38
2023-03-01T06:13:02.671Z,1018.37
2023-03-01T06:14:02.592Z,1018.41
2023-03-01T06:15:02.658Z,1018.42
2023-03-01T06:16:02.692Z,1018.41
2023-03-01T06:17:02.679Z,1018.41
2023-03-01T06:18:02.780Z,1018.42
2023-03-01T06:19:02.817Z,1018.39
2023-03-01T06:20:02.914Z,1018.43
2023-03-01T06:21:02.698Z,1018.41
2023-03-01T06:22:02.919Z,1018.40
2023-03-01T06:23:02.585Z,1018.41
2023-03-01T06:24:02.924Z,1018.40
2023-03-01T06:25:03.036Z,1018.38
2023-03-01T06:26:03.143Z,1018.39
2023-03-01T06:27:03.153Z,1018.42
2023-03-01T06:28:02.548Z,1018.38
2023-03-01T06:29:03.174Z,1018.35
2023-03-01T06:30:03.048Z,1018.32
2023-03-01T06:31:02.515Z,1018.31
2023-03-01T06:32:02.620Z,1018.27
2023-03-01T06:33:02.614Z,1018.25
2023-03-01T06:34:02.660Z,1018.24
2023-03-01T06:35:02.694Z,1018.21
2023-03-01T06:36:02.564Z,1018.24
2023-03-01T06:37:02.443Z,1018.28
2023-03-01T06:38:02.480Z,1018.27
2023-03-01T06:39:02.422Z,1018.31
2023-03-01T06:40:03.057Z,1018.31
2023-03-01T06:41:02.419Z,1018.27
2023-03-01T06:42:02.437Z,1018.28
2023-03-01T06:43:02.436Z,1018.22
2023-03-01T06:44:02.445Z,1018.24
2023-03-01T06:45:02.446Z,1018.27
2023-03-01T06:46:02.383Z,1018.23
2023-03-01T06:47:02.467Z,1018.23
2023-03-01T06:48:02.478Z,1018.18
2023-03-01T06:49:02.478Z,1018.16
2023-03-01T06:50:02.406Z,1018.20
2023-03-01T06:51:02.504Z,1018.16
2023-03-01T06:52:02.362Z,1018.15
2023-03-01T06:53:02.396Z,1018.15
2023-03-01T06:54:02.457Z,1018.09
2023-03-01T06:55:02.382Z,1018.10
2023-03-01T06:56:02.441Z,1018.15
2023-03-01T06:57:02.532Z,1018.15
2023-03-01T06:58:02.366Z,1018.16
2023-03-01T06:59:02.556Z,1018.16
2023-03-01T07:00:02.625Z,1018.20
2023-03-01T07:01:04.100Z,1018.21
2023-03-01T07:02:02.652Z,1018.20
2023-03-01T07:03:02.697Z,1018.23
2023-03-01T07:04:02.452Z,1018.20
2023-03-01T07:05:02.660Z,1018.20
2023-03-01T07:06:02.680Z,1018.18
2023-03-01T07:07:02.679Z,1018.17
2023-03-01T07:08:02.478Z,1018.17
2023-03-01T07:09:02.280Z,1018.20
2023-03-01T07:10:02.696Z,1018.15
2023-03-01T07:11:02.823Z,1018.16
2023-03-01T07:12:02.220Z,1018.18
2023-03-01T07:13:02.862Z,1018.09
2023-03-01T07:14:02.427Z,1018.08
2023-03-01T07:15:02.628Z,1018.15
2023-03-01T07:16:02.909Z,1018.17
2023-03-01T07:17:02.857Z,1018.14
2023-03-01T07:18:02.864Z,1018.14
2023-03-01T07:19:02.872Z,1018.15
2023-03-01T07:20:02.876Z,1018.18
2023-03-01T07:21:02.166Z,1018.13
2023-03-01T07:22:02.167Z,1018.08
2023-03-01T07:23:02.170Z,1018.09
2023-03-01T07:24:02.191Z,1018.03
2023-03-01T07:25:02.198Z,1018.03
2023-03-01T07:26:02.202Z,1018.04
2023-03-01T07:27:02.130Z,1017.97
2023-03-01T07:28:02.145Z,1018.06
2023-03-01T07:29:02.224Z,1017.98
2023-03-01T07:30:02.220Z,1017.91
2023-03-01T07:31:02.096Z,1017.94
2023-03-01T07:32:02.222Z,1017.89
2023-03-01T07:33:02.238Z,1017.86
2023-03-01T07:34:02.103Z,1017.83
2023-03-01T07:35:02.128Z,1017.83
2023-03-01T07:36:02.210Z,1017.87
2023-03-01T07:37:02.085Z,1017.86
2023-03-01T07:38:02.283Z,1017.85
2023-03-01T07:39:02.279Z,1017.83
2023-03-01T07:40:02.301Z,1017.79
2023-03-01T07:41:02.347Z,1017.78
2023-03-01T07:42:02.308Z,1017.75
2023-03-01T07:43:02.420Z,1017.73
2023-03-01T07:44:02.314Z,1017.75
2023-03-01T07:45:02.429Z,1017.71
2023-03-01T07:46:02.492Z,1017.75
2023-03-01T07:47:02.004Z,1017.73
2023-03-01T07:48:02.453Z,1017.68
2023-03-01T07:49:02.137Z,1017.69
2023-03-01T07:50:02.497Z,1017.69
2023-03-01T07:51:02.461Z,1017.67
2023-03-01T07:52:02.468Z,1017.71
2023-03-01T07:53:02.066Z,1017.65
2023-03-01T07:54:02.274Z,1017.69
2023-03-01T07:55:02.532Z,1017.73
2023-03-01T07:56:02.416Z,1017.71
2023-03-01T07:57:02.506Z,1017.70
2023-03-01T07:58:01.993Z,1017.74
2023-03-01T07:59:02.006Z,1017.75
2023-03-01T08:00:02.624Z,1017.80
2023-03-01T08:01:02.094Z,1017.71
2023-03-01T08:02:02.035Z,1017.76
2023-03-01T08:03:02.433Z,1017.70
2023-03-01T08:04:01.962Z,1017.73
2023-03-01T08:05:01.903Z,1017.73
2023-03-01T08:06:02.150Z,1017.78
2023-03-01T08:07:01.918Z,1017.70
2023-03-01T08:08:01.894Z,1017.78
2023-03-01T08:09:01.909Z,1017.74
2023-03-01T08:10:01.878Z,1017.78
2023-03-01T08:11:01.890Z,1017.75
2023-03-01T08:12:01.955Z,1017.81
2023-03-01T08:13:01.999Z,1017.75
2023-03-01T08:14:02.149Z,1017.76
2023-03-01T08:15:01.854Z,1017.75
2023-03-01T08:16:01.874Z,1017.71
2023-03-01T08:18:27.818Z,1017.66
2023-03-01T08:19:27.822Z,1017.67
2023-03-01T08:20:27.942Z,1017.66
2023-03-01T08:21:27.952Z,1017.68
2023-03-01T08:22:27.952Z,1017.65
2023-03-01T08:23:27.967Z,1017.65
2023-03-01T08:24:27.772Z,1017.62
2023-03-01T08:25:27.902Z,1017.64
2023-03-01T08:26:27.976Z,1017.60
2023-03-01T08:27:28.006Z,1017.65
2023-03-01T08:28:27.989Z,1017.57
2023-03-01T08:29:27.997Z,1017.59
2023-03-01T08:30:28.011Z,1017.58
2023-03-01T08:31:27.856Z,1017.60
2023-03-01T08:32:28.068Z,1017.61
2023-03-01T08:33:27.961Z,1017.63
2023-03-01T08:34:28.050Z,1017.60
2023-03-01T08:35:27.685Z,1017.59
2023-03-01T08:36:27.860Z,1017.55
2023-03-01T08:37:28.253Z,1017.54
2023-03-01T08:38:28.066Z,1017.57
2023-03-01T08:39:28.326Z,1017.60
2023-03-01T08:40:28.273Z,1017.58
2023-03-01T08:41:27.918Z,1017.54
2023-03-01T08:42:28.295Z,1017.49
2023-03-01T08:43:27.895Z,1017.48
2023-03-01T08:44:28.301Z,1017.49
2023-03-01T08:45:27.703Z,1017.51
2023-03-01T08:46:27.713Z,1017.53
2023-03-01T08:47:27.624Z,1017.48
2023-03-01T08:48:27.715Z,1017.46
2023-03-01T08:49:27.734Z,1017.48
2023-03-01T08:50:27.726Z,1017.49
2023-03-01T08:51:27.572Z,1017.48
2023-03-01T08:52:27.752Z,1017.37
2023-03-01T08:53:27.757Z,1017.44
2023-03-01T08:54:27.764Z,1017.41
2023-03-01T08:55:27.769Z,1017.43
2023-03-01T08:56:27.793Z,1017.39
2023-03-01T08:57:28.004Z,1017.38
2023-03-01T08:58:27.989Z,1017.35
2023-03-01T08:59:27.538Z,1017.42
2023-03-01T09:00:27.789Z,1017.39
2023-03-01T09:01:27.820Z,1017.40
2023-03-01T09:02:27.682Z,1017.40
2023-03-01T09:03:27.629Z,1017.44
2023-03-01T09:04:27.632Z,1017.46
2023-03-01T09:05:27.510Z,1017.45
2023-03-01T09:06:27.635Z,1017.39
2023-03-01T09:07:27.641Z,1017.48
2023-03-01T09:08:27.574Z,1017.41
2023-03-01T09:09:27.856Z,1017.36
2023-03-01T09:10:27.474Z,1017.40
2023-03-01T09:11:27.879Z,1017.35
2023-03-01T09:12:28.324Z,1017.40
2023-03-01T09:13:28.105Z,1017.36
2023-03-01T09:14:27.466Z,1017.34
2023-03-01T09:15:28.335Z,1017.35
2023-03-01T09:16:28.522Z,1017.31
2023-03-01T09:17:27.706Z,1017.32
2023-03-01T09:18:27.703Z,1017.34
2023-03-01T09:19:28.339Z,1017.30
2023-03-01T09:20:28.046Z,1017.30
2023-03-01T09:21:39.541Z,1017.22
2023-03-01T09:22:27.377Z,1017.25
2023-03-01T09:23:27.375Z,1017.26
2023-03-01T09:24:27.401Z,1017.22
2023-03-01T09:25:27.379Z,1017.21
2023-03-01T09:26:27.338Z,1017.19
2023-03-01T09:27:27.362Z,1017.19
2023-03-01T09:28:30.007Z,1017.21
2023-03-01T09:29:27.381Z,1017.22
2023-03-01T09:30:27.404Z,1017.21
2023-03-01T09:31:27.309Z,1017.20
2023-03-01T09:32:27.385Z,1017.27
2023-03-01T09:33:27.402Z,1017.18
2023-03-01T09:34:27.404Z,1017.09
2023-03-01T09:35:27.309Z,1017.10
2023-03-01T09:36:27.287Z,1017.07
2023-03-01T09:37:27.429Z,1017.08
2023-03-01T09:38:27.438Z,1017.06
2023-03-01T09:39:27.440Z,1017.04
2023-03-01T09:40:27.270Z,1017.00
2023-03-01T09:41:27.450Z,1016.98
2023-03-01T09:42:27.457Z,1016.98
2023-03-01T09:43:27.457Z,1016.99
2023-03-01T09:44:27.476Z,1017.08
2023-03-01T09:45:27.479Z,1017.08
2023-03-01T09:46:27.340Z,1017.09
2023-03-01T09:47:27.302Z,1017.07
2023-03-01T09:48:27.309Z,1017.07
2023-03-01T09:49:27.224Z,1016.99
2023-03-01T09:50:27.221Z,1017.02
2023-03-01T09:51:27.356Z,1017.05
2023-03-01T09:52:27.364Z,1017.02
2023-03-01T09:53:27.547Z,1017.08
2023-03-01T09:54:27.158Z,1017.05
2023-03-01T09:55:27.337Z,1017.09
2023-03-01T09:56:27.572Z,1017.05
2023-03-01T09:57:27.602Z,1017.08
2023-03-01T09:58:27.147Z,1017.00
2023-03-01T09:59:27.161Z,1017.05
2023-03-01T10:00:27.164Z,1016.98
2023-03-01T10:01:27.167Z,1016.98
2023-03-01T10:02:27.173Z,1016.98
2023-03-01T10:03:27.270Z,1016.94
2023-03-01T10:04:27.222Z,1016.93
2023-03-01T10:05:27.405Z,1016.92
2023-03-01T10:06:34.887Z,1016.98
2023-03-01T10:07:27.432Z,1016.96
2023-03-01T10:08:27.091Z,1016.97
2023-03-01T10:09:27.474Z,1016.88
2023-03-01T10:10:27.442Z,1016.91
2023-03-01T10:11:27.434Z,1016.82
2023-03-01T10:12:27.655Z,1016.83
2023-03-01T10:13:27.244Z,1016.77
2023-03-01T10:14:27.881Z,1016.77
2023-03-01T10:15:27.968Z,1016.78
2023-03-01T10:16:27.102Z,1016.79
2023-03-01T10:17:27.882Z,1016.76
2023-03-01T10:18:27.892Z,1016.82
2023-03-01T10:19:27.541Z,1016.79
2023-03-01T10:20:27.029Z,1016.74
2023-03-01T10:21:27.049Z,1016.77
2023-03-01T10:22:27.909Z,1016.80
2023-03-01T10:23:27.780Z,1016.75
2023-03-01T10:24:27.520Z,1016.80
2023-03-01T10:25:26.980Z,1016.73
2023-03-01T10:26:27.785Z,1016.66
2023-03-01T10:27:26.954Z,1016.67
2023-03-01T10:28:27.347Z,1016.64
2023-03-01T10:29:27.609Z,1016.67
2023-03-01T10:30:27.558Z,1016.66
2023-03-01T10:31:28.259Z,1016.61
2023-03-01T10:32:27.064Z,1016.65
2023-03-01T10:33:27.167Z,1016.62
2023-03-01T10:34:26.914Z,1016.58
2023-03-01T10:35:27.028Z,1016.59
2023-03-01T10:36:26.990Z,1016.57
2023-03-01T10:37:27.014Z,1016.51
2023-03-01T10:38:27.022Z,1016.53
2023-03-01T10:39:27.012Z,1016.48
2023-03-01T10:40:27.015Z,1016.49
2023-03-01T10:41:26.847Z,1016.48
2023-03-01T10:42:26.864Z,1016.48
2023-03-01T10:43:26.865Z,1016.40
2023-03-01T10:44:26.858Z,1016.44
2023-03-01T10:45:27.041Z,1016.38
2023-03-01T10:46:26.966Z,1016.37
2023-03-01T10:47:27.075Z,1016.40
2023-03-01T10:48:26.923Z,1016.43
2023-03-01T10:49:27.090Z,1016.38
2023-03-01T10:50:26.825Z,1016.35
2023-03-01T10:51:27.158Z,1016.29
2023-03-01T10:52:27.315Z,1016.36
2023-03-01T10:53:27.333Z,1016.30
2023-03-01T10:54:27.311Z,1016.22
2023-03-01T10:55:26.902Z,1016.22
2023-03-01T10:56:27.106Z,1016.24
2023-03-01T10:57:27.439Z,1016.20
2023-03-01T10:58:26.886Z,1016.15
2023-03-01T10:59:26.740Z,1016.20
2023-03-01T11:00:27.340Z,1016.15
2023-03-01T11:01:27.062Z,1016.18
2023-03-01T11:02:27.451Z,1016.18
2023-03-01T11:03:27.467Z,1016.22
2023-03-01T11:04:26.851Z,1016.21
2023-03-01T11:05:26.972Z,1016.11
2023-03-01T11:06:26.829Z,1016.13
2023-03-01T11:07:26.661Z,1016.16
2023-03-01T11:08:26.725Z,1016.11
2023-03-01T11:09:26.680Z,1016.15
2023-03-01T11:10:26.659Z,1016.12
2023-03-01T11:11:26.702Z,1016.11
2023-03-01T11:12:26.630Z,1016.11
2023-03-01T11:13:26.626Z,1016.02
2023-03-01T11:14:27.880Z,1015.95
2023-03-01T11:15:26.639Z,1015.91
2023-03-01T11:16:26.740Z,1015.95
2023-03-01T11:17:26.789Z,1015.91
2023-03-01T11:18:40.518Z,1015.90
2023-03-01T11:19:26.798Z,1015.86
2023-03-01T11:20:28.384Z,1015.88
2023-03-01T11:21:26.826Z,1015.91
2023-03-01T11:22:26.684Z,1015.92
2023-03-01T11:23:26.606Z,1015.87
2023-03-01T11:24:26.868Z,1015.88
2023-03-01T11:25:26.886Z,1015.87
2023-03-01T11:26:26.536Z,1015.85
2023-03-01T11:27:26.521Z,1015.89
2023-03-01T11:28:28.036Z,1015.82
2023-03-01T11:29:26.801Z,1015.81
2023-03-01T11:30:26.936Z,1015.85
2023-03-01T11:31:26.857Z,1015.78
2023-03-01T11:32:26.649Z,1015.81
2023-03-01T11:33:26.730Z,1015.78
2023-03-01T11:34:26.995Z,1015.74
2023-03-01T11:35:26.998Z,1015.66
2023-03-01T11:36:27.020Z,1015.65
2023-03-01T11:37:26.463Z,1015.67
2023-03-01T11:38:26.471Z,1015.70
2023-03-01T11:39:26.458Z,1015.62
2023-03-01T11:40:26.465Z,1015.64
2023-03-01T11:41:26.520Z,1015.69
2023-03-01T11:42:26.416Z,1015.73
2023-03-01T11:43:26.406Z,1015.68
2023-03-01T11:44:26.413Z,1015.66
2023-03-01T11:45:26.400Z,1015.62
2023-03-01T11:46:26.542Z,1015.60
2023-03-01T11:47:26.522Z,1015.59
2023-03-01T11:48:26.356Z,1015.56
2023-03-01T11:49:26.383Z,1015.52
2023-03-01T11:50:26.391Z,1015.58
2023-03-01T11:51:26.413Z,1015.49
2023-03-01T11:52:26.458Z,1015.48
2023-03-01T11:53:26.394Z,1015.47
2023-03-01T11:54:26.346Z,1015.50
2023-03-01T11:55:26.342Z,1015.46
2023-03-01T11:56:26.496Z,1015.43
2023-03-01T11:57:34.124Z,1015.48
2023-03-01T11:58:26.315Z,1015.49
2023-03-01T11:59:26.577Z,1015.48
2023-03-01T12:00:26.297Z,1015.48
2023-03-01T12:01:26.291Z,1015.42
2023-03-01T12:02:26.728Z,1015.42
2023-03-01T12:03:26.617Z,1015.39
2023-03-01T12:04:26.683Z,1015.39
2023-03-01T12:05:26.648Z,1015.30
2023-03-01T12:06:26.262Z,1015.34
2023-03-01T12:07:26.238Z,1015.36
2023-03-01T12:08:26.360Z,1015.36